Time;durP1;ratioP1;P1;durP2;ratioP2;P2;SDS_P1;SDS_P2;PMS_P1;PMS_P2;Temp;Humidity;BMP_temperature;BMP_pressure;BME280_temperature;BME280_humidity;BME280_pressure;Samples;Min_cycle;Max_cycle;Signal;HPM_P1;HPM_P2
2021/06/05 00:01:20;;;;;;;13.87;12.43;;;;;;;18.44;82.63;101199.88;126739;1093;63089;-80
2021/06/05 00:03:49;;;;;;;14.40;12.77;;;;;;;18.38;82.51;101195.36;126849;1093;62900;-80
2021/06/05 00:06:17;;;;;;;15.50;12.60;;;;;;;18.32;82.56;101202.43;126851;1093;62859;-80
2021/06/05 00:08:45;;;;;;;17.77;12.97;;;;;;;18.28;82.56;101195.83;126896;1093;62785;-81
2021/06/05 00:11:15;;;;;;;16.97;13.37;;;;;;;18.24;82.50;101192.74;126723;1093;62316;-80
2021/06/05 00:13:47;;;;;;;13.03;11.73;;;;;;;18.20;82.72;101194.20;126922;1093;63314;-80
2021/06/05 00:16:20;;;;;;;13.93;12.47;;;;;;;18.15;82.49;101196.72;126799;1093;63028;-79
2021/06/05 00:18:48;;;;;;;17.30;12.57;;;;;;;18.09;82.78;101202.94;126776;1093;62716;-79
2021/06/05 00:21:17;;;;;;;16.67;12.60;;;;;;;18.02;82.80;101199.42;126864;1093;62338;-80
2021/06/05 00:23:45;;;;;;;17.80;12.70;;;;;;;17.94;83.05;101203.19;126751;1092;62967;-80
2021/06/05 00:26:12;;;;;;;18.33;12.50;;;;;;;17.87;83.70;101200.53;126642;1093;62890;-80
2021/06/05 00:28:39;;;;;;;18.20;14.60;;;;;;;17.82;84.05;101203.00;126725;1091;62197;-80
2021/06/05 00:31:07;;;;;;;19.83;13.33;;;;;;;17.79;84.19;101206.09;126784;1093;62818;-81
2021/06/05 00:33:35;;;;;;;14.97;13.20;;;;;;;17.74;84.29;101211.24;126737;1093;63037;-81
2021/06/05 00:36:07;;;;;;;17.30;14.60;;;;;;;17.70;84.89;101208.17;126812;1092;63918;-81
2021/06/05 00:38:36;;;;;;;16.00;14.27;;;;;;;17.68;85.06;101202.19;126957;1093;62717;-81
2021/06/05 00:41:06;;;;;;;17.70;13.50;;;;;;;17.67;85.09;101199.70;126886;1093;62469;-81
2021/06/05 00:43:39;;;;;;;16.07;13.73;;;;;;;17.69;85.50;101197.64;126793;1093;62280;-81
2021/06/05 00:46:06;;;;;;;16.63;14.93;;;;;;;17.70;85.74;101191.23;126601;1092;63209;-78
2021/06/05 00:48:34;;;;;;;18.73;14.77;;;;;;;17.68;85.57;101193.30;126599;1093;63070;-80
2021/06/05 00:51:02;;;;;;;17.30;13.57;;;;;;;17.66;85.44;101187.31;126562;1093;62896;-81
2021/06/05 00:53:30;;;;;;;15.13;13.53;;;;;;;17.65;85.31;101191.86;126869;1093;62759;-80
2021/06/05 00:55:59;;;;;;;16.80;13.57;;;;;;;17.64;85.39;101184.05;126874;1093;64475;-80
2021/06/05 00:58:28;;;;;;;15.60;13.87;;;;;;;17.62;85.16;101186.92;126833;1093;63536;-81
2021/06/05 01:01:09;;;;;;;15.53;12.97;;;;;;;17.60;85.33;101188.17;127024;1093;62759;-81
2021/06/05 01:03:37;;;;;;;14.37;12.50;;;;;;;17.58;85.65;101179.52;126723;1093;63038;-80
2021/06/05 01:06:21;;;;;;;17.77;12.47;;;;;;;17.57;85.33;101191.27;126762;1093;62201;-80
2021/06/05 01:08:54;;;;;;;14.23;12.67;;;;;;;17.51;85.56;101179.50;126723;1093;62932;-80
2021/06/05 01:11:43;;;;;;;17.33;13.57;;;;;;;17.48;85.83;101175.38;126810;1093;62243;-80
2021/06/05 01:14:29;;;;;;;14.93;12.33;;;;;;;17.47;85.97;101179.11;126752;1093;62952;-80
2021/06/05 01:17:03;;;;;;;15.37;12.80;;;;;;;17.48;86.53;101182.61;126668;1093;62945;-80
2021/06/05 01:20:03;;;;;;;14.63;13.20;;;;;;;17.48;86.69;101178.06;126710;1092;62999;-80
2021/06/05 01:22:51;;;;;;;15.60;14.00;;;;;;;17.49;86.42;101177.05;126519;1093;62197;-80
2021/06/05 01:25:46;;;;;;;14.73;12.93;;;;;;;17.50;86.39;101178.68;126751;1093;62612;-80
2021/06/05 01:28:30;;;;;;;14.45;12.60;;;;;;;17.47;86.14;101180.98;126720;1093;62222;-80
2021/06/05 01:31:01;;;;;;;17.08;13.83;;;;;;;17.44;86.30;101170.65;126729;1093;62938;-81
2021/06/05 01:33:32;;;;;;;14.77;13.17;;;;;;;17.42;86.35;101172.71;126391;1092;63039;-81
2021/06/05 01:36:00;;;;;;;16.80;14.83;;;;;;;17.37;86.44;101170.66;126851;1093;62301;-81
2021/06/05 01:38:29;;;;;;;16.30;14.57;;;;;;;17.33;86.37;101167.56;126740;1092;62964;-81
2021/06/05 01:40:58;;;;;;;16.57;13.63;;;;;;;17.31;86.49;101168.81;126860;1092;62191;-81
2021/06/05 01:43:28;;;;;;;14.93;12.67;;;;;;;17.32;86.54;101170.47;126754;1093;62872;-80
2021/06/05 01:45:58;;;;;;;16.20;14.50;;;;;;;17.32;86.76;101167.80;126473;1093;62720;-81
2021/06/05 01:48:26;;;;;;;14.50;13.00;;;;;;;17.30;86.46;101167.17;126748;1093;62858;-81
2021/06/05 01:50:54;;;;;;;16.20;13.40;;;;;;;17.28;86.58;101163.88;126574;1092;63002;-80
2021/06/05 01:53:31;;;;;;;15.40;13.07;;;;;;;17.26;86.51;101163.26;126723;1092;64916;-81
2021/06/05 01:56:17;;;;;;;18.17;13.53;;;;;;;17.24;86.42;101163.45;127523;1093;62829;-80
2021/06/05 01:58:45;;;;;;;16.40;13.03;;;;;;;17.23;86.36;101159.11;128122;1093;62355;-80
2021/06/05 02:01:13;;;;;;;16.50;13.10;;;;;;;17.20;86.29;101166.77;128136;1093;62125;-80
2021/06/05 02:03:42;;;;;;;15.77;13.43;;;;;;;17.16;86.54;101165.53;127831;1093;63175;-81
2021/06/05 02:06:10;;;;;;;15.47;13.80;;;;;;;17.16;86.73;101166.34;127510;1093;62205;-80
2021/06/05 02:08:37;;;;;;;16.27;13.80;;;;;;;17.16;86.83;101168.20;126822;1093;62963;-80
2021/06/05 02:11:12;;;;;;;14.33;12.83;;;;;;;17.10;86.37;101167.98;126726;1092;62300;-80
2021/06/05 02:13:48;;;;;;;16.40;14.67;;;;;;;17.04;86.50;101163.48;126639;1092;62318;-80
2021/06/05 02:16:31;;;;;;;17.23;15.10;;;;;;;16.97;86.68;101162.63;126793;1092;62848;-80
2021/06/05 02:19:08;;;;;;;19.13;14.83;;;;;;;16.94;86.81;101162.20;126871;1093;62351;-79
2021/06/05 02:21:36;;;;;;;19.50;14.13;;;;;;;16.92;86.97;101159.75;126877;1093;62945;-80
2021/06/05 02:24:09;;;;;;;13.97;10.90;;;;;;;16.86;86.55;101160.58;126761;1093;62935;-80
2021/06/05 02:26:41;;;;;;;17.50;13.87;;;;;;;16.80;86.81;101162.20;126831;1093;62770;-81
2021/06/05 02:29:19;;;;;;;14.97;12.80;;;;;;;16.75;86.66;101153.94;126570;1093;62147;-80
2021/06/05 02:31:46;;;;;;;15.30;13.70;;;;;;;16.73;87.14;101150.64;126652;1093;62990;-80
2021/06/05 02:34:18;;;;;;;16.13;13.03;;;;;;;16.74;87.02;101151.45;126616;1093;62983;-80
2021/06/05 02:36:48;;;;;;;15.87;12.73;;;;;;;16.73;87.24;101150.64;126792;1093;62970;-80
2021/06/05 02:39:18;;;;;;;17.70;14.00;;;;;;;16.75;87.35;101147.77;126624;1092;62900;-80
2021/06/05 02:41:48;;;;;;;16.97;14.77;;;;;;;16.74;87.31;101143.42;126928;1093;63009;-80
2021/06/05 02:44:19;;;;;;;18.43;14.03;;;;;;;16.77;87.31;101148.39;126828;1093;62270;-79
2021/06/05 02:46:46;;;;;;;15.53;13.00;;;;;;;16.78;87.46;101139.30;126908;1093;63732;-80
2021/06/05 02:49:19;;;;;;;18.23;12.70;;;;;;;16.79;86.93;101154.33;126780;1093;62893;-80
2021/06/05 02:51:54;;;;;;;15.33;13.23;;;;;;;16.82;87.07;101153.97;126969;1093;62987;-80
2021/06/05 02:54:23;;;;;;;20.07;14.17;;;;;;;16.84;87.35;101151.91;126985;1093;62832;-79
2021/06/05 02:56:51;;;;;;;17.07;13.33;;;;;;;16.88;87.34;101143.25;126825;1093;62467;-78
2021/06/05 02:59:20;;;;;;;15.17;13.07;;;;;;;16.92;87.07;101138.31;126898;1093;63048;-79
2021/06/05 03:01:47;;;;;;;15.20;12.00;;;;;;;16.94;86.80;101136.26;126885;1093;62970;-80
2021/06/05 03:04:15;;;;;;;15.40;12.37;;;;;;;16.94;86.54;101146.98;126738;1093;62267;-79
2021/06/05 03:06:42;;;;;;;14.83;13.23;;;;;;;16.94;86.48;101151.48;126787;1093;62290;-79
2021/06/05 03:09:15;;;;;;;15.10;11.50;;;;;;;16.91;86.09;101147.38;126724;1091;62186;-80
2021/06/05 03:11:45;;;;;;;13.50;11.67;;;;;;;16.90;86.11;101145.73;126699;1093;62149;-79
2021/06/05 03:14:13;;;;;;;14.37;12.53;;;;;;;16.91;85.83;101147.38;126826;1093;62900;-80
2021/06/05 03:16:41;;;;;;;14.43;11.97;;;;;;;16.93;85.81;101150.67;126851;1093;62186;-79
2021/06/05 03:19:08;;;;;;;13.67;10.53;;;;;;;16.92;85.42;101154.40;126644;1093;62872;-79
2021/06/05 03:21:35;;;;;;;12.77;11.47;;;;;;;16.88;85.34;101145.12;126742;1093;63040;-78
2021/06/05 03:24:03;;;;;;;13.43;11.20;;;;;;;16.87;85.52;101149.66;126860;1092;62191;-79
2021/06/05 03:26:31;;;;;;;11.80;9.65;;;;;;;16.88;85.64;101158.52;126694;1093;62224;-78
2021/06/05 03:28:58;;;;;;;13.83;10.13;;;;;;;16.86;85.39;101157.89;126506;1093;62559;-79
2021/06/05 03:31:25;;;;;;;13.87;12.47;;;;;;;16.85;85.40;101169.63;126487;1092;62854;-80
2021/06/05 03:33:52;;;;;;;13.83;12.20;;;;;;;16.87;85.78;101162.20;126819;1092;64442;-80
2021/06/05 03:36:21;;;;;;;13.93;12.37;;;;;;;16.93;85.54;101161.39;126769;1092;62489;-80
2021/06/05 03:38:49;;;;;;;12.33;9.60;;;;;;;16.99;85.40;101165.11;126877;1093;62900;-80
2021/06/05 03:41:16;;;;;;;11.10;9.93;;;;;;;17.00;85.13;101162.23;126810;1093;62563;-80
2021/06/05 03:43:43;;;;;;;14.43;10.07;;;;;;;17.05;84.79;101161.61;126889;1093;63008;-79
2021/06/05 03:46:10;;;;;;;14.13;11.30;;;;;;;17.10;85.04;101154.58;126750;1093;62884;-79
2021/06/05 03:48:38;;;;;;;12.77;9.87;;;;;;;17.18;84.76;101155.42;126758;1092;63027;-80
2021/06/05 03:51:07;;;;;;;12.83;9.73;;;;;;;17.21;84.35;101155.81;126715;1093;63008;-80
2021/06/05 03:53:35;;;;;;;13.20;11.80;;;;;;;17.27;84.36;101157.66;126637;1093;62978;-80
2021/06/05 03:56:03;;;;;;;13.17;11.70;;;;;;;17.30;84.11;101151.91;126405;1092;62833;-79
2021/06/05 03:58:40;;;;;;;16.30;11.07;;;;;;;17.34;83.78;101157.69;126686;1092;63403;-80
2021/06/05 04:01:20;;;;;;;14.20;12.70;;;;;;;17.42;83.71;101160.13;126793;1093;62284;-80
2021/06/05 04:03:48;;;;;;;13.13;11.73;;;;;;;17.52;83.48;101152.47;126836;1093;62216;-80
2021/06/05 04:06:19;;;;;;;12.80;11.10;;;;;;;17.62;83.38;101146.69;126864;1093;63504;-80
2021/06/05 04:08:47;;;;;;;12.60;11.13;;;;;;;17.74;83.00;101146.84;127026;1093;62948;-79
2021/06/05 04:11:16;;;;;;;12.27;10.17;;;;;;;17.81;82.62;101146.81;126517;1093;62829;-79
2021/06/05 04:13:45;;;;;;;13.17;10.57;;;;;;;17.85;82.24;101150.76;126877;1092;63031;-79
2021/06/05 04:16:15;;;;;;;13.67;12.17;;;;;;;17.91;82.02;101148.08;126858;1093;64660;-79
2021/06/05 04:18:43;;;;;;;16.47;11.40;;;;;;;17.98;81.78;101144.52;126883;1093;62196;-79
2021/06/05 04:21:14;;;;;;;15.67;11.73;;;;;;;18.07;81.52;101145.94;126779;1093;65260;-80
2021/06/05 04:23:42;;;;;;;13.63;10.73;;;;;;;18.17;81.15;101150.83;126663;1093;63103;-80
2021/06/05 04:26:10;;;;;;;10.77;9.67;;;;;;;18.23;80.60;101145.42;126770;1092;62278;-79
2021/06/05 04:28:38;;;;;;;14.67;10.03;;;;;;;18.26;80.09;101155.75;127225;1093;63048;-79
2021/06/05 04:31:07;;;;;;;13.13;10.63;;;;;;;18.30;80.25;101146.23;127351;1092;61665;-80
2021/06/05 04:33:35;;;;;;;11.30;9.30;;;;;;;18.38;79.98;101150.51;127707;1093;62719;-80
2021/06/05 04:36:09;;;;;;;13.13;10.33;;;;;;;18.45;79.56;101147.81;127449;1092;62918;-80
2021/06/05 04:38:38;;;;;;;10.97;9.87;;;;;;;18.48;79.07;101148.18;127258;1093;62839;-80
2021/06/05 04:41:08;;;;;;;11.33;9.40;;;;;;;18.54;79.15;101146.50;126828;1093;62155;-80
2021/06/05 04:43:35;;;;;;;11.17;8.87;;;;;;;18.56;79.00;101149.80;126952;1093;63379;-80
2021/06/05 04:46:02;;;;;;;11.07;9.63;;;;;;;18.60;78.87;101151.02;126728;1093;63190;-80
2021/06/05 04:48:30;;;;;;;11.20;9.63;;;;;;;18.64;78.23;101146.86;126514;1092;62431;-79
2021/06/05 04:50:57;;;;;;;9.53;8.53;;;;;;;18.66;77.60;101150.15;126513;1093;63231;-79
2021/06/05 04:53:24;;;;;;;9.15;8.20;;;;;;;18.70;77.37;101156.73;126655;1093;62938;-79
2021/06/05 04:55:52;;;;;;;10.77;9.03;;;;;;;18.72;77.38;101151.13;126495;1093;63792;-79
2021/06/05 04:58:20;;;;;;;10.83;8.93;;;;;;;18.73;77.25;101150.91;126552;1092;62960;-80
2021/06/05 05:00:51;;;;;;;14.83;10.40;;;;;;;18.77;77.01;101150.50;126389;1093;63287;-80
2021/06/05 05:03:24;;;;;;;12.40;9.33;;;;;;;18.81;76.85;101154.42;126723;1093;63028;-78
2021/06/05 05:05:56;;;;;;;10.50;9.00;;;;;;;18.83;76.56;101149.63;126852;1093;62877;-79
2021/06/05 05:08:24;;;;;;;10.20;8.00;;;;;;;18.86;76.30;101159.95;126738;1093;63006;-79
2021/06/05 05:10:53;;;;;;;10.90;9.30;;;;;;;18.89;76.32;101162.20;126438;1093;63038;-79
2021/06/05 05:13:32;;;;;;;10.97;9.27;;;;;;;18.93;76.29;101155.34;126509;1093;62996;-79
2021/06/05 05:16:00;;;;;;;11.07;9.67;;;;;;;18.96;76.54;101152.23;126690;1093;62225;-80
2021/06/05 05:18:27;;;;;;;12.90;11.05;;;;;;;18.99;76.53;101161.72;126449;1092;63181;-79
2021/06/05 05:20:55;;;;;;;11.80;7.10;;;;;;;19.01;76.00;101151.56;126450;1093;62334;-78
2021/06/05 05:23:27;;;;;;;7.67;5.33;;;;;;;18.99;75.74;101154.47;126720;1093;62100;-79
2021/06/05 05:25:59;;;;;;;10.93;8.20;;;;;;;18.97;75.78;101150.36;126531;1093;62494;-80
2021/06/05 05:28:26;;;;;;;12.47;9.17;;;;;;;18.99;76.00;101154.47;126594;1093;63006;-80
2021/06/05 05:30:57;;;;;;;8.57;7.47;;;;;;;18.90;75.66;101134.28;126864;1093;62170;-80
2021/06/05 05:33:25;;;;;;;9.47;8.43;;;;;;;19.06;75.71;101152.56;126614;1093;62856;-80
2021/06/05 05:35:55;;;;;;;11.33;10.03;;;;;;;19.12;75.83;101159.72;126900;1093;62967;-80
2021/06/05 05:38:23;;;;;;;11.13;9.90;;;;;;;19.19;76.05;101148.09;126866;1092;62196;-80
2021/06/05 05:40:51;;;;;;;10.33;9.00;;;;;;;19.25;75.40;101152.59;126539;1092;63667;-80
2021/06/05 05:43:18;;;;;;;10.90;8.80;;;;;;;19.26;75.35;101159.63;126866;1093;63326;-78
2021/06/05 05:45:45;;;;;;;9.97;8.80;;;;;;;19.30;74.99;101160.83;126805;1093;62778;-80
2021/06/05 05:48:13;;;;;;;10.07;8.97;;;;;;;19.35;74.92;101169.05;126831;1092;62894;-79
2021/06/05 05:50:42;;;;;;;11.87;9.13;;;;;;;19.38;74.67;101160.55;126239;1093;62120;-79
2021/06/05 05:53:10;;;;;;;10.97;9.87;;;;;;;19.44;74.67;101156.95;126780;1093;62440;-79
2021/06/05 05:55:37;;;;;;;13.93;9.90;;;;;;;19.51;74.89;101157.72;126743;1093;63015;-80
2021/06/05 05:58:16;;;;;;;8.93;8.03;;;;;;;19.60;74.43;101157.43;126837;1093;62194;-79
2021/06/05 06:00:46;;;;;;;12.80;10.33;;;;;;;19.67;74.36;101164.37;126432;1093;62904;-79
2021/06/05 06:03:15;;;;;;;13.20;10.40;;;;;;;19.74;74.08;101165.17;126681;1093;62180;-79
2021/06/05 06:05:43;;;;;;;10.00;8.77;;;;;;;19.82;73.87;101161.33;126827;1093;62261;-79
2021/06/05 06:08:12;;;;;;;9.90;7.50;;;;;;;19.89;73.55;101154.02;126633;1093;63006;-79
2021/06/05 06:10:42;;;;;;;8.73;7.37;;;;;;;19.95;73.20;101171.97;126681;1093;62214;-79
2021/06/05 06:13:09;;;;;;;12.63;8.57;;;;;;;20.05;73.01;101167.91;126746;1093;63037;-79
2021/06/05 06:15:38;;;;;;;14.60;9.40;;;;;;;20.13;72.78;101167.61;126743;1093;64251;-79
2021/06/05 06:18:07;;;;;;;10.03;9.03;;;;;;;20.21;72.62;101159.22;126501;1093;62897;-80
2021/06/05 06:20:42;;;;;;;9.85;8.75;;;;;;;20.27;72.02;101162.85;126708;1092;62967;-79
2021/06/05 06:23:22;;;;;;;9.90;8.85;;;;;;;20.32;72.00;101163.00;126682;1093;62938;-78
2021/06/05 06:25:51;;;;;;;9.10;7.80;;;;;;;20.36;71.82;101167.70;126711;1093;62729;-79
2021/06/05 06:28:22;;;;;;;10.07;7.57;;;;;;;20.42;71.70;101162.44;126108;1093;63008;-78
2021/06/05 06:30:50;;;;;;;13.23;8.70;;;;;;;20.47;71.43;101167.98;126276;1092;62823;-78
2021/06/05 06:33:19;;;;;;;11.43;9.00;;;;;;;20.60;71.35;101167.81;126519;1093;63284;-79
2021/06/05 06:35:46;;;;;;;11.87;9.40;;;;;;;20.72;71.27;101165.13;126505;1093;62848;-78
2021/06/05 06:38:24;;;;;;;10.07;8.80;;;;;;;20.84;71.05;101162.47;126378;1093;62907;-79
2021/06/05 06:40:52;;;;;;;10.60;9.17;;;;;;;20.93;70.75;101169.16;126394;1093;64420;-79
2021/06/05 06:43:23;;;;;;;8.77;7.87;;;;;;;21.06;69.87;101160.03;126474;1093;62951;-78
2021/06/05 06:45:51;;;;;;;10.30;8.17;;;;;;;21.14;70.01;101160.50;126441;1092;62678;-77
2021/06/05 06:48:18;;;;;;;11.67;10.27;;;;;;;21.17;69.47;101160.05;126081;1093;62897;-79
2021/06/05 06:50:46;;;;;;;10.13;8.33;;;;;;;21.24;69.23;101159.93;125994;1093;62368;-79
2021/06/05 06:53:13;;;;;;;9.67;8.17;;;;;;;21.28;68.75;101160.29;126603;1093;62983;-76
2021/06/05 06:55:40;;;;;;;10.55;8.85;;;;;;;21.29;68.79;101170.02;125974;1093;62457;-74
2021/06/05 06:58:07;;;;;;;11.47;9.07;;;;;;;21.36;68.84;101170.73;125962;1093;62903;-76
2021/06/05 07:00:39;;;;;;;11.20;8.30;;;;;;;21.44;68.60;101170.39;126459;1093;62941;-75
2021/06/05 07:03:06;;;;;;;10.87;9.03;;;;;;;21.49;68.90;101170.52;125990;1093;62971;-75
2021/06/05 07:05:35;;;;;;;10.33;8.50;;;;;;;21.56;68.31;101179.30;125956;1093;62668;-74
2021/06/05 07:08:13;;;;;;;9.70;8.77;;;;;;;21.64;68.32;101178.13;126144;1093;62781;-75
2021/06/05 07:10:41;;;;;;;8.97;8.07;;;;;;;21.72;67.73;101182.36;126030;1093;63000;-75
2021/06/05 07:13:09;;;;;;;9.67;8.30;;;;;;;21.76;67.55;101178.94;126030;1093;62946;-75
2021/06/05 07:15:36;;;;;;;10.00;8.27;;;;;;;21.75;67.52;101177.28;126303;1093;62942;-77
2021/06/05 07:18:05;;;;;;;9.50;8.60;;;;;;;21.79;67.86;101172.24;126368;1093;63754;-75
2021/06/05 07:20:37;;;;;;;9.90;6.67;;;;;;;21.85;67.40;101173.17;126303;1093;62896;-76
2021/06/05 07:23:05;;;;;;;9.00;8.10;;;;;;;21.87;67.68;101160.25;126329;1092;62203;-76
2021/06/05 07:25:32;;;;;;;9.70;8.37;;;;;;;21.97;67.73;101172.09;126583;1093;62909;-75
2021/06/05 07:28:29;;;;;;;9.93;8.80;;;;;;;22.05;66.91;101164.66;126271;1093;64676;-75
2021/06/05 07:30:57;;;;;;;10.90;9.70;;;;;;;22.12;66.80;101170.73;126443;1093;63152;-78
2021/06/05 07:33:26;;;;;;;11.13;8.37;;;;;;;22.20;67.02;101175.75;126978;1093;62964;-79
2021/06/05 07:35:55;;;;;;;10.63;8.53;;;;;;;22.25;66.86;101164.25;126940;1093;62299;-79
2021/06/05 07:38:23;;;;;;;9.57;8.30;;;;;;;22.35;66.50;101164.45;127166;1093;62193;-79
2021/06/05 07:40:54;;;;;;;10.40;8.50;;;;;;;22.42;66.27;101164.30;127004;1092;62939;-80
2021/06/05 07:43:24;;;;;;;10.13;8.50;;;;;;;22.47;66.14;101161.70;126630;1092;62863;-79
2021/06/05 07:45:54;;;;;;;10.10;9.00;;;;;;;22.53;65.50;101166.14;126754;1093;63131;-79
2021/06/05 07:48:23;;;;;;;9.87;8.87;;;;;;;22.63;65.44;101174.41;126655;1093;63034;-79
2021/06/05 07:50:50;;;;;;;9.83;7.70;;;;;;;22.74;65.24;101176.24;126507;1092;62872;-80
2021/06/05 07:53:18;;;;;;;11.77;8.93;;;;;;;22.82;65.40;101179.60;126836;1093;63106;-80
2021/06/05 07:55:45;;;;;;;8.53;7.73;;;;;;;22.89;65.13;101181.09;126941;1093;62938;-80
2021/06/05 07:58:12;;;;;;;9.87;8.20;;;;;;;22.98;65.08;101173.39;126958;1093;62222;-80
2021/06/05 08:00:40;;;;;;;10.47;8.13;;;;;;;23.04;64.40;101179.73;126762;1093;62960;-80
2021/06/05 08:03:09;;;;;;;11.40;7.83;;;;;;;23.08;64.67;101179.00;126927;1093;62315;-79
2021/06/05 08:05:39;;;;;;;9.13;8.23;;;;;;;23.18;64.50;101176.42;126631;1093;62323;-80
2021/06/05 08:08:08;;;;;;;9.23;7.87;;;;;;;23.29;63.73;101177.42;126587;1093;62816;-80
2021/06/05 08:10:36;;;;;;;9.93;8.00;;;;;;;23.39;64.13;101174.03;126767;1093;62266;-79
2021/06/05 08:13:03;;;;;;;11.07;8.37;;;;;;;23.44;63.45;101173.28;126513;1093;62297;-79
2021/06/05 08:15:34;;;;;;;9.00;8.10;;;;;;;23.49;63.36;101176.89;126685;1093;63028;-78
2021/06/05 08:18:02;;;;;;;11.10;8.17;;;;;;;23.55;62.81;101175.89;126912;1093;63107;-80
2021/06/05 08:20:36;;;;;;;8.93;7.80;;;;;;;23.57;62.51;101175.66;126611;1093;64163;-80
2021/06/05 08:23:04;;;;;;;9.87;8.47;;;;;;;23.64;62.28;101170.05;126722;1093;62870;-79
2021/06/05 08:25:31;;;;;;;7.80;6.70;;;;;;;23.71;62.58;101176.91;126679;1093;62974;-79
2021/06/05 08:27:58;;;;;;;8.47;7.30;;;;;;;23.74;62.13;101179.13;126720;1093;62907;-80
2021/06/05 08:30:31;;;;;;;9.20;8.27;;;;;;;23.76;62.47;101173.50;126849;1093;62323;-80
2021/06/05 08:32:58;;;;;;;9.53;7.47;;;;;;;23.85;62.13;101171.97;126889;1093;63031;-80
2021/06/05 08:35:26;;;;;;;7.70;6.90;;;;;;;23.95;61.68;101165.84;126373;1093;62942;-80
2021/06/05 08:37:53;;;;;;;9.05;8.15;;;;;;;24.08;61.65;101167.34;126588;1093;62527;-79
2021/06/05 08:40:46;;;;;;;9.87;8.53;;;;;;;24.18;61.62;101167.47;126553;1093;62763;-80
2021/06/05 08:43:37;;;;;;;8.70;7.77;;;;;;;24.34;60.94;101168.46;126325;1093;63428;-79
2021/06/05 08:46:10;;;;;;;8.30;7.40;;;;;;;24.39;61.02;101172.03;126317;1092;62229;-79
2021/06/05 08:48:37;;;;;;;8.40;7.60;;;;;;;24.45;61.03;101172.09;127818;1092;62247;-80
2021/06/05 08:51:20;;;;;;;9.23;7.93;;;;;;;24.54;59.79;101167.87;126746;1093;63035;-80
2021/06/05 08:53:47;;;;;;;8.77;7.63;;;;;;;24.62;59.83;101170.12;127790;1093;63396;-80
2021/06/05 08:56:24;;;;;;;7.97;7.17;;;;;;;24.64;58.78;101175.30;127973;1092;62869;-80
2021/06/05 08:58:55;;;;;;;7.73;6.30;;;;;;;24.70;59.70;101182.41;128207;1092;62597;-79
2021/06/05 09:01:40;;;;;;;9.70;8.73;;;;;;;24.77;59.59;101183.81;128284;1092;62428;-79
2021/06/05 09:04:12;;;;;;;7.97;7.07;;;;;;;24.86;59.57;101186.05;128280;1092;62605;-79
2021/06/05 09:06:50;;;;;;;12.77;9.27;;;;;;;24.87;59.31;101183.09;127661;1092;62277;-80
2021/06/05 09:09:24;;;;;;;9.70;8.70;;;;;;;24.98;59.55;101192.13;126903;1093;62974;-80
2021/06/05 09:11:52;;;;;;;9.00;7.17;;;;;;;25.02;57.50;101202.20;127096;1093;63012;-79
2021/06/05 09:14:19;;;;;;;8.23;7.33;;;;;;;25.06;58.10;101194.38;126500;1092;62965;-79
2021/06/05 09:16:52;;;;;;;8.93;8.13;;;;;;;25.12;59.17;101195.20;126683;1093;62967;-80
2021/06/05 09:19:37;;;;;;;11.70;10.47;;;;;;;25.18;58.14;101195.02;126672;1093;62907;-81
2021/06/05 09:22:07;;;;;;;21.57;10.90;;;;;;;25.26;57.78;101198.34;126751;1093;62900;-80
2021/06/05 09:24:42;;;;;;;11.10;8.30;;;;;;;25.35;57.31;101196.77;127064;1093;62962;-80
2021/06/05 09:27:17;;;;;;;9.67;8.67;;;;;;;25.41;57.81;101203.87;127043;1093;63038;-80
2021/06/05 09:29:47;;;;;;;8.60;7.27;;;;;;;25.51;58.23;101198.50;128127;1093;62358;-80
2021/06/05 09:32:25;;;;;;;10.40;7.43;;;;;;;25.68;57.51;101192.89;128280;1093;62331;-79
2021/06/05 09:34:57;;;;;;;10.10;7.70;;;;;;;25.86;57.35;101194.32;128095;1093;63312;-79
2021/06/05 09:37:40;;;;;;;10.37;7.30;;;;;;;26.00;56.66;101197.41;127657;1093;63588;-80
2021/06/05 09:40:25;;;;;;;8.20;7.35;;;;;;;26.17;56.70;101194.48;126793;1093;62980;-80
2021/06/05 09:42:52;;;;;;;;;;;;;;;26.35;55.83;101196.72;126789;1092;63067;-79
2021/06/05 09:45:31;;;;;;;10.80;7.17;;;;;;;26.47;54.66;101188.29;126863;1093;62875;-76
2021/06/05 09:48:22;;;;;;;10.15;8.30;;;;;;;26.57;54.29;101192.97;126450;1092;63527;-77
2021/06/05 09:50:52;;;;;;;9.10;8.00;;;;;;;26.63;54.60;101191.89;126423;1093;62557;-79
2021/06/05 09:53:25;;;;;;;9.90;9.03;;;;;;;26.68;54.17;101188.36;126773;1092;62893;-78
2021/06/05 09:55:52;;;;;;;9.17;7.83;;;;;;;26.75;54.21;101183.45;126436;1093;62971;-78
2021/06/05 09:58:44;;;;;;;13.57;9.87;;;;;;;26.79;53.94;101179.09;126618;1093;62249;-78
2021/06/05 10:01:21;;;;;;;9.03;8.13;;;;;;;26.85;54.54;101181.55;126418;1092;63473;-78
2021/06/05 10:04:08;;;;;;;10.10;9.07;;;;;;;26.81;53.54;101176.92;126246;1093;62949;-79
2021/06/05 10:06:43;;;;;;;9.60;8.35;;;;;;;26.79;54.20;101174.46;126375;1092;64994;-79
2021/06/05 10:09:24;;;;;;;9.57;8.00;;;;;;;27.03;54.44;101173.91;126503;1093;62846;-78
2021/06/05 10:11:57;;;;;;;8.47;6.90;;;;;;;27.25;53.24;101163.57;126305;1093;63028;-78
2021/06/05 10:14:52;;;;;;;9.40;8.47;;;;;;;27.40;53.00;101164.63;126140;1093;64450;-77
2021/06/05 10:17:26;;;;;;;10.47;9.33;;;;;;;27.53;53.29;101171.41;126246;1093;62976;-78
2021/06/05 10:20:02;;;;;;;10.40;8.93;;;;;;;27.71;53.13;101159.06;126285;1093;62897;-78
2021/06/05 10:22:31;;;;;;;9.67;8.67;;;;;;;27.90;51.43;101157.37;126046;1093;64417;-78
2021/06/05 10:25:05;;;;;;;14.30;10.37;;;;;;;27.95;51.92;101151.91;126915;1093;62045;-79
2021/06/05 10:27:36;;;;;;;9.83;8.80;;;;;;;28.14;51.54;101149.34;126151;1093;64561;-78
2021/06/05 10:30:08;;;;;;;10.43;9.43;;;;;;;28.24;51.15;101143.00;126237;1093;62951;-78
2021/06/05 10:32:44;;;;;;;10.43;9.43;;;;;;;28.43;51.85;101152.14;126360;1093;63025;-78
2021/06/05 10:35:28;;;;;;;12.80;9.87;;;;;;;28.56;50.26;101152.63;126018;1093;63006;-78
2021/06/05 10:38:21;;;;;;;10.70;9.63;;;;;;;28.53;49.46;101162.20;126273;1093;62768;-79
2021/06/05 10:40:52;;;;;;;9.10;8.20;;;;;;;28.36;49.85;101162.56;126145;1093;62932;-78
2021/06/05 10:43:22;;;;;;;14.43;11.07;;;;;;;28.20;50.19;101159.14;126263;1093;64440;-79
2021/06/05 10:45:50;;;;;;;10.63;9.53;;;;;;;28.07;50.07;101157.01;126234;1093;62875;-78
2021/06/05 10:48:33;;;;;;;12.30;10.93;;;;;;;28.06;50.32;101148.02;126308;1093;62925;-78
2021/06/05 10:51:08;;;;;;;10.00;8.95;;;;;;;28.05;50.44;101154.59;126109;1093;62964;-79
2021/06/05 10:54:05;;;;;;;10.63;8.93;;;;;;;28.10;51.01;101144.75;126495;1092;62923;-78
2021/06/05 10:56:57;;;;;;;6.90;6.20;;;;;;;28.29;50.37;101156.63;126438;1093;62930;-79
2021/06/05 10:59:46;;;;;;;10.30;9.17;;;;;;;28.24;50.30;101152.02;126304;1093;62948;-78
2021/06/05 11:02:38;;;;;;;11.30;7.97;;;;;;;28.18;50.25;101158.60;126004;1093;63099;-79
2021/06/05 11:05:18;;;;;;;12.00;9.15;;;;;;;27.97;50.60;101166.08;126311;1093;62951;-78
2021/06/05 11:08:10;;;;;;;9.97;7.93;;;;;;;27.60;50.96;101150.92;126289;1093;63421;-79
2021/06/05 11:10:55;;;;;;;9.70;7.53;;;;;;;27.22;52.22;101155.96;126296;1093;63453;-78
2021/06/05 11:13:35;;;;;;;11.17;8.43;;;;;;;26.93;53.03;101152.97;126336;1092;62939;-78
2021/06/05 11:16:20;;;;;;;14.17;10.33;;;;;;;26.72;53.31;101151.34;126372;1093;62952;-78
2021/06/05 11:18:53;;;;;;;10.67;9.57;;;;;;;26.35;54.29;101155.91;126336;1093;63051;-77
2021/06/05 11:21:24;;;;;;;10.20;9.07;;;;;;;26.10;54.99;101151.23;126051;1093;62994;-76
2021/06/05 11:24:00;;;;;;;8.60;7.63;;;;;;;25.91;56.14;101156.34;126204;1093;63547;-78
2021/06/05 11:26:32;;;;;;;10.23;9.13;;;;;;;25.66;56.24;101153.48;126221;1093;62800;-78
2021/06/05 11:28:59;;;;;;;8.97;8.07;;;;;;;25.45;57.65;101160.72;126239;1093;62941;-78
2021/06/05 11:31:47;;;;;;;10.57;8.47;;;;;;;25.26;57.49;101163.05;125986;1093;63006;-78